createdAt,value
2018-09-30T00:02:08.775Z,58.91
2018-09-30T00:04:39.662Z,58.40
2018-09-30T00:07:09.453Z,58.13
2018-09-30T00:09:39.249Z,58.97
2018-09-30T00:12:09.108Z,60.64
2018-09-30T00:14:39.044Z,59.35
2018-09-30T00:17:09.500Z,59.73
2018-09-30T00:19:39.459Z,60.41
2018-09-30T00:22:09.348Z,58.73
2018-09-30T00:24:44.455Z,60.14
2018-09-30T00:27:19.761Z,60.09
2018-09-30T00:29:49.643Z,60.15
2018-09-30T00:32:19.483Z,61.81
2018-09-30T00:34:49.407Z,60.41
2018-09-30T00:37:20.082Z,60.81
2018-09-30T00:39:49.948Z,61.32
2018-09-30T00:42:19.805Z,61.43
2018-09-30T00:44:49.877Z,61.55
2018-09-30T00:47:19.760Z,61.49
2018-09-30T00:49:49.635Z,61.21
2018-09-30T00:52:19.464Z,60.99
2018-09-30T00:54:49.342Z,61.28
2018-09-30T00:57:19.201Z,62.22
2018-09-30T00:59:49.093Z,63.70
2018-09-30T01:02:18.922Z,62.59
2018-09-30T01:04:48.862Z,63.57
2018-09-30T01:07:18.707Z,63.32
2018-09-30T01:09:48.456Z,63.41
2018-09-30T01:12:18.307Z,63.27
2018-09-30T01:14:48.175Z,63.14
2018-09-30T01:17:18.220Z,63.17
2018-09-30T01:19:49.493Z,62.96
2018-09-30T01:22:19.432Z,63.67
2018-09-30T01:24:49.535Z,62.86
2018-09-30T01:27:24.124Z,61.94
2018-09-30T01:29:57.867Z,62.40
2018-09-30T01:32:27.962Z,62.41
2018-09-30T01:34:58.172Z,61.68
2018-09-30T01:37:28.384Z,61.71
2018-09-30T01:39:58.350Z,62.31
2018-09-30T01:42:28.658Z,62.43
2018-09-30T01:44:58.315Z,62.91
2018-09-30T01:47:27.968Z,63.04
2018-09-30T01:49:57.719Z,63.28
2018-09-30T01:52:47.565Z,63.67
2018-09-30T01:55:17.330Z,64.19
2018-09-30T01:57:47.200Z,64.15
2018-09-30T02:00:17.773Z,63.29
2018-09-30T02:02:47.943Z,64.60
2018-09-30T02:05:18.065Z,62.90
2018-09-30T02:07:48.900Z,63.58
2018-09-30T02:10:18.929Z,63.27
2018-09-30T02:12:48.686Z,63.42
2018-09-30T02:15:18.499Z,63.73
2018-09-30T02:17:48.269Z,63.66
2018-09-30T02:20:17.984Z,64.15
2018-09-30T02:22:47.784Z,65.65
2018-09-30T02:25:17.352Z,64.91
2018-09-30T02:27:47.286Z,64.64
2018-09-30T02:30:17.029Z,65.85
2018-09-30T02:32:46.839Z,65.27
2018-09-30T02:35:17.393Z,65.06
2018-09-30T02:37:47.233Z,66.76
2018-09-30T02:40:17.058Z,64.80
2018-09-30T02:42:46.730Z,65.99
2018-09-30T02:45:16.673Z,64.90
2018-09-30T02:47:46.008Z,64.87
2018-09-30T02:50:15.318Z,65.61
2018-09-30T02:52:44.631Z,65.56
2018-09-30T02:55:13.988Z,66.03
2018-09-30T02:57:43.308Z,65.32
2018-09-30T03:00:12.663Z,67.09
2018-09-30T03:02:41.963Z,66.62
2018-09-30T03:05:11.371Z,66.40
2018-09-30T03:07:45.906Z,67.28
2018-09-30T03:10:15.207Z,67.52
2018-09-30T03:12:44.550Z,65.89
2018-09-30T03:15:13.870Z,67.01
2018-09-30T03:17:43.187Z,67.01
2018-09-30T03:20:12.499Z,66.63
2018-09-30T03:22:41.793Z,68.25
2018-09-30T03:25:11.107Z,68.19
2018-09-30T03:27:40.392Z,68.77
2018-09-30T03:30:09.942Z,69.16
2018-09-30T03:32:39.259Z,69.49
2018-09-30T03:35:08.596Z,70.13
2018-09-30T03:37:37.919Z,70.70
2018-09-30T03:40:07.210Z,70.58
2018-09-30T03:42:36.482Z,69.51
2018-09-30T03:45:05.778Z,69.52
2018-09-30T03:47:35.091Z,71.03
2018-09-30T03:50:04.383Z,71.21
2018-09-30T03:52:33.679Z,71.24
2018-09-30T03:55:02.979Z,70.47
2018-09-30T03:57:32.298Z,70.51
2018-09-30T04:00:01.821Z,70.05
2018-09-30T04:02:31.118Z,71.40
2018-09-30T04:05:00.732Z,71.53
2018-09-30T04:07:30.033Z,72.04
2018-09-30T04:09:59.430Z,70.27
2018-09-30T04:12:28.674Z,70.82
2018-09-30T04:14:58.013Z,70.60
2018-09-30T04:17:27.341Z,71.46
2018-09-30T04:19:56.577Z,70.44
2018-09-30T04:22:25.834Z,71.20
2018-09-30T04:24:55.111Z,71.78
2018-09-30T04:27:24.429Z,71.54
2018-09-30T04:29:53.770Z,70.43
2018-09-30T04:32:23.070Z,71.09
2018-09-30T04:34:52.400Z,71.02
2018-09-30T04:37:21.704Z,70.96
2018-09-30T04:39:50.983Z,70.97
2018-09-30T04:42:20.275Z,71.24
2018-09-30T04:44:49.535Z,70.73
2018-09-30T04:47:18.805Z,71.07
2018-09-30T04:49:48.093Z,71.01
2018-09-30T04:52:17.345Z,72.15
2018-09-30T04:54:46.646Z,71.19
2018-09-30T04:57:15.921Z,72.88
2018-09-30T04:59:45.196Z,72.66
2018-09-30T05:02:14.518Z,72.47
2018-09-30T05:04:43.943Z,71.49
2018-09-30T05:07:13.266Z,72.00
2018-09-30T05:09:42.537Z,72.44
2018-09-30T05:12:11.863Z,72.98
2018-09-30T05:14:41.183Z,71.75
2018-09-30T05:17:10.527Z,71.64
2018-09-30T05:19:39.890Z,72.60
2018-09-30T05:22:09.186Z,73.11
2018-09-30T05:24:38.474Z,72.52
2018-09-30T05:27:07.780Z,73.38
2018-09-30T05:29:37.070Z,72.62
2018-09-30T05:32:06.746Z,73.20
2018-09-30T05:34:36.035Z,72.90
2018-09-30T05:37:05.518Z,72.44
2018-09-30T05:39:34.791Z,72.90
2018-09-30T05:42:04.186Z,72.79
2018-09-30T05:44:33.505Z,72.61
2018-09-30T05:47:02.830Z,72.87
2018-09-30T05:49:32.148Z,72.11
2018-09-30T05:52:01.522Z,73.14
2018-09-30T05:54:30.895Z,71.04
2018-09-30T05:57:00.199Z,71.70
2018-09-30T05:59:29.554Z,71.60
2018-09-30T06:01:58.895Z,71.87
2018-09-30T06:04:28.226Z,72.90
2018-09-30T06:06:57.570Z,69.89
2018-09-30T06:09:26.935Z,67.25
2018-09-30T06:11:56.195Z,67.39
2018-09-30T06:14:25.527Z,66.23
2018-09-30T06:16:54.862Z,66.12
2018-09-30T06:19:24.169Z,63.93
2018-09-30T06:21:53.543Z,63.87
2018-09-30T06:24:22.846Z,62.47
2018-09-30T06:26:52.184Z,60.69
2018-09-30T06:29:21.478Z,59.22
2018-09-30T06:31:50.898Z,58.19
2018-09-30T06:34:20.191Z,56.89
2018-09-30T06:36:49.539Z,55.56
2018-09-30T06:39:18.870Z,56.47
2018-09-30T06:41:48.182Z,54.30
2018-09-30T06:44:17.528Z,52.81
2018-09-30T06:46:46.844Z,52.67
2018-09-30T06:49:16.172Z,52.73
2018-09-30T06:51:45.618Z,52.83
2018-09-30T06:54:14.946Z,52.55
2018-09-30T06:56:44.257Z,50.28
2018-09-30T06:59:13.554Z,49.30
2018-09-30T07:01:43.145Z,50.80
2018-09-30T07:04:12.511Z,50.07
2018-09-30T07:06:41.859Z,50.39
2018-09-30T07:09:11.158Z,50.19
2018-09-30T07:11:47.067Z,49.85
2018-09-30T07:14:16.404Z,49.27
2018-09-30T07:16:45.722Z,47.66
2018-09-30T07:19:15.072Z,48.63
2018-09-30T07:21:44.460Z,46.82
2018-09-30T07:24:13.868Z,46.70
2018-09-30T07:26:43.285Z,47.28
2018-09-30T07:29:12.633Z,46.23
2018-09-30T07:31:41.969Z,45.97
2018-09-30T07:34:11.307Z,47.93
2018-09-30T07:36:40.613Z,46.70
2018-09-30T07:39:10.811Z,47.30
2018-09-30T07:41:40.120Z,44.78
2018-09-30T07:44:09.459Z,45.36
2018-09-30T07:46:38.759Z,46.41
2018-09-30T07:49:08.051Z,43.55
2018-09-30T07:51:37.330Z,43.84
2018-09-30T07:54:06.628Z,47.04
2018-09-30T07:56:35.958Z,42.70
2018-09-30T07:59:05.323Z,45.68
2018-09-30T08:01:34.606Z,43.38
2018-09-30T08:04:03.896Z,43.52
2018-09-30T08:06:33.290Z,44.59
2018-09-30T08:09:02.721Z,43.32
2018-09-30T08:11:32.024Z,44.04
2018-09-30T08:14:01.347Z,42.89
2018-09-30T08:16:30.742Z,40.73
2018-09-30T08:18:59.974Z,42.77
2018-09-30T08:21:29.280Z,42.77
2018-09-30T08:23:58.619Z,42.69
2018-09-30T08:26:27.835Z,41.43
2018-09-30T08:28:57.120Z,41.45
2018-09-30T08:31:26.419Z,42.59
2018-09-30T08:33:55.846Z,43.35
2018-09-30T08:36:25.155Z,42.23
2018-09-30T08:38:54.596Z,42.25
2018-09-30T08:41:23.915Z,40.71
2018-09-30T08:43:53.392Z,41.54
2018-09-30T08:46:22.686Z,41.91
2018-09-30T08:48:53.180Z,40.42
2018-09-30T08:51:22.990Z,42.63
2018-09-30T08:53:52.759Z,40.20
2018-09-30T08:56:22.557Z,42.08
2018-09-30T08:58:52.257Z,42.29
2018-09-30T09:01:21.824Z,41.09
2018-09-30T09:03:51.230Z,41.95
2018-09-30T09:06:20.643Z,41.10
2018-09-30T09:08:50.413Z,41.66
2018-09-30T09:11:20.285Z,39.72
2018-09-30T09:13:50.028Z,41.51
2018-09-30T09:16:19.875Z,40.59
2018-09-30T09:18:49.586Z,39.11
2018-09-30T09:21:19.177Z,40.06
2018-09-30T09:23:48.959Z,39.08
2018-09-30T09:26:18.430Z,38.09
2018-09-30T09:28:47.848Z,39.50
2018-09-30T09:31:17.404Z,38.80
2018-09-30T09:33:46.947Z,37.82
2018-09-30T09:36:16.328Z,38.12
2018-09-30T09:38:45.731Z,39.66
2018-09-30T09:41:15.077Z,40.92
2018-09-30T09:43:44.501Z,38.82
2018-09-30T09:46:14.064Z,41.01
2018-09-30T09:48:43.500Z,37.84
2018-09-30T09:51:12.907Z,38.96
2018-09-30T09:53:42.317Z,38.31
2018-09-30T09:56:11.775Z,36.82
2018-09-30T09:58:41.182Z,40.62
2018-09-30T10:06:19.423Z,37.38
2018-09-30T10:18:11.401Z,37.08
2018-09-30T10:20:40.719Z,36.81
2018-09-30T10:23:10.024Z,38.00
2018-09-30T10:25:39.356Z,36.67
2018-09-30T10:28:08.703Z,38.96
2018-09-30T10:30:38.060Z,40.03
2018-09-30T10:33:07.362Z,38.47
2018-09-30T10:35:36.659Z,38.47
2018-09-30T10:38:06.217Z,35.07
2018-09-30T10:40:35.559Z,36.43
2018-09-30T10:43:04.863Z,37.41
2018-09-30T10:45:34.200Z,36.97
2018-09-30T10:48:03.502Z,40.54
2018-09-30T10:50:32.950Z,37.59
2018-09-30T10:53:02.352Z,36.45
2018-09-30T10:55:31.657Z,37.80
2018-09-30T10:58:01.100Z,36.33
2018-09-30T11:00:30.425Z,35.56
2018-09-30T11:02:59.933Z,34.61
2018-09-30T11:05:29.275Z,36.67
2018-09-30T11:07:58.604Z,37.41
2018-09-30T11:10:27.963Z,36.21
2018-09-30T11:12:57.290Z,35.63
2018-09-30T11:15:26.647Z,33.67
2018-09-30T11:17:55.971Z,33.19
2018-09-30T11:20:25.324Z,35.94
2018-09-30T11:22:54.682Z,36.92
2018-09-30T11:25:23.994Z,34.98
2018-09-30T11:27:53.354Z,36.11
2018-09-30T11:30:22.671Z,33.33
2018-09-30T11:32:51.992Z,35.75
2018-09-30T11:35:21.313Z,37.46
2018-09-30T11:37:50.652Z,36.39
2018-09-30T11:40:19.978Z,37.19
2018-09-30T11:42:49.360Z,33.57
2018-09-30T11:45:18.763Z,30.55
2018-09-30T11:47:48.135Z,31.05
2018-09-30T11:50:17.695Z,35.27
2018-09-30T11:52:47.043Z,33.32
2018-09-30T11:55:16.510Z,33.14
2018-09-30T11:57:45.846Z,36.19
2018-09-30T12:00:15.186Z,34.92
2018-09-30T12:02:44.485Z,34.88
2018-09-30T12:05:13.804Z,32.45
2018-09-30T12:07:43.180Z,32.45
2018-09-30T12:10:12.491Z,32.36
2018-09-30T12:12:41.812Z,35.09
2018-09-30T12:15:11.152Z,37.87
2018-09-30T12:17:40.502Z,34.35
2018-09-30T12:20:09.829Z,32.94
2018-09-30T12:22:39.165Z,34.69
2018-09-30T12:25:08.520Z,35.11
2018-09-30T12:27:37.859Z,33.54
2018-09-30T12:30:07.162Z,32.70
2018-09-30T12:32:36.508Z,34.16
2018-09-30T12:35:06.113Z,35.35
2018-09-30T12:37:35.449Z,35.19
2018-09-30T12:40:05.166Z,34.72
2018-09-30T12:42:34.539Z,33.55
2018-09-30T12:45:03.879Z,32.35
2018-09-30T12:47:33.232Z,31.46
2018-09-30T12:50:02.608Z,32.71
2018-09-30T12:52:31.968Z,34.70
2018-09-30T12:55:01.329Z,33.49
2018-09-30T12:57:30.685Z,35.28
2018-09-30T13:00:00.067Z,33.82
2018-09-30T13:02:29.413Z,33.06
2018-09-30T13:04:58.739Z,33.09
2018-09-30T13:07:28.096Z,32.73
2018-09-30T13:09:57.464Z,32.40
2018-09-30T13:12:26.824Z,33.66
2018-09-30T13:14:56.186Z,33.17
2018-09-30T13:17:25.544Z,34.13
2018-09-30T13:19:54.955Z,34.71
2018-09-30T13:22:24.364Z,34.72
2018-09-30T13:24:53.693Z,34.28
2018-09-30T13:27:23.111Z,32.83
2018-09-30T13:29:52.478Z,32.62
2018-09-30T13:32:21.852Z,32.46
2018-09-30T13:34:51.195Z,32.51
2018-09-30T13:37:20.824Z,32.86
2018-09-30T13:39:50.211Z,31.61
2018-09-30T13:42:19.550Z,32.20
2018-09-30T13:44:48.856Z,32.61
2018-09-30T13:47:18.182Z,34.38
2018-09-30T13:49:47.487Z,33.38
2018-09-30T13:52:16.832Z,33.91
2018-09-30T13:54:46.128Z,34.41
2018-09-30T13:57:15.528Z,35.58
2018-09-30T13:59:44.839Z,35.93
2018-09-30T14:02:14.166Z,35.30
2018-09-30T14:04:43.460Z,34.74
2018-09-30T14:07:12.782Z,33.96
2018-09-30T14:09:42.127Z,33.04
2018-09-30T14:12:11.444Z,34.21
2018-09-30T14:14:40.756Z,33.08
2018-09-30T14:17:10.075Z,33.57
2018-09-30T14:19:39.390Z,34.30
2018-09-30T14:22:08.712Z,34.93
2018-09-30T14:24:38.029Z,34.11
2018-09-30T14:27:07.497Z,33.62
2018-09-30T14:29:36.683Z,33.76
2018-09-30T14:32:06.117Z,34.26
2018-09-30T14:34:35.440Z,33.58
2018-09-30T14:37:04.740Z,36.14
2018-09-30T14:39:34.153Z,36.37
2018-09-30T14:42:03.516Z,35.29
2018-09-30T14:44:32.845Z,36.01
2018-09-30T14:47:02.138Z,35.24
2018-09-30T14:49:31.472Z,35.64
2018-09-30T14:52:00.856Z,36.62
2018-09-30T14:54:30.223Z,35.78
2018-09-30T14:56:59.856Z,34.75
2018-09-30T14:59:29.178Z,36.12
2018-09-30T15:01:58.539Z,36.49
2018-09-30T15:04:27.878Z,35.13
2018-09-30T15:06:57.182Z,35.87
2018-09-30T15:09:26.561Z,36.14
2018-09-30T15:11:55.919Z,36.69
2018-09-30T15:14:25.287Z,35.35
2018-09-30T15:16:54.605Z,37.52
2018-09-30T15:19:23.912Z,37.29
2018-09-30T15:21:53.242Z,36.96
2018-09-30T15:24:22.568Z,37.09
2018-09-30T15:26:51.864Z,36.31
2018-09-30T15:29:21.278Z,37.78
2018-09-30T15:31:50.573Z,38.41
2018-09-30T15:34:19.928Z,38.18
2018-09-30T15:36:49.276Z,38.32
2018-09-30T15:39:18.576Z,38.46
2018-09-30T15:41:47.901Z,39.41
2018-09-30T15:44:17.277Z,38.42
2018-09-30T15:46:46.593Z,39.41
2018-09-30T15:49:15.908Z,39.33
2018-09-30T15:51:45.263Z,38.95
2018-09-30T15:54:14.556Z,42.01
2018-09-30T15:56:43.851Z,42.23
2018-09-30T15:59:13.154Z,42.35
2018-09-30T16:01:42.443Z,42.94
2018-09-30T16:04:11.748Z,41.32
2018-09-30T16:06:41.057Z,42.43
2018-09-30T16:09:10.372Z,43.07
2018-09-30T16:11:39.890Z,44.94
2018-09-30T16:14:09.290Z,43.72
2018-09-30T16:16:38.654Z,43.77
2018-09-30T16:19:08.212Z,47.36
2018-09-30T16:21:37.554Z,49.09
2018-09-30T16:24:06.888Z,51.53
2018-09-30T16:26:36.186Z,52.33
2018-09-30T16:29:05.477Z,52.74
2018-09-30T16:31:34.785Z,55.08
2018-09-30T16:34:04.153Z,57.58
2018-09-30T16:36:33.557Z,58.16
2018-09-30T16:39:02.910Z,59.97
2018-09-30T16:41:32.283Z,59.90
2018-09-30T16:44:01.607Z,60.94
2018-09-30T16:46:30.964Z,62.25
2018-09-30T16:49:00.315Z,63.09
2018-09-30T16:51:29.717Z,63.92
2018-09-30T16:53:59.070Z,64.86
2018-09-30T16:56:28.411Z,65.45
2018-09-30T16:58:57.722Z,64.78
2018-09-30T17:01:27.054Z,65.55
2018-09-30T17:03:56.375Z,66.13
2018-09-30T17:06:25.711Z,66.47
2018-09-30T17:08:55.074Z,66.07
2018-09-30T17:11:24.632Z,65.91
2018-09-30T17:13:53.983Z,65.65
2018-09-30T17:16:23.343Z,65.27
2018-09-30T17:18:52.639Z,64.58
2018-09-30T17:21:21.947Z,65.08
2018-09-30T17:23:51.266Z,64.78
2018-09-30T17:26:20.606Z,64.82
2018-09-30T17:28:49.923Z,65.08
2018-09-30T17:31:19.278Z,65.23
2018-09-30T17:33:48.537Z,65.61
2018-09-30T17:36:17.847Z,65.94
2018-09-30T17:38:47.276Z,66.02
2018-09-30T17:41:16.596Z,66.28
2018-09-30T17:43:45.999Z,66.77
2018-09-30T17:46:15.430Z,66.84
2018-09-30T17:48:44.759Z,67.33
2018-09-30T17:51:14.143Z,66.93
2018-09-30T17:53:43.392Z,67.86
2018-09-30T17:56:12.657Z,68.51
2018-09-30T17:58:42.019Z,68.57
2018-09-30T18:01:11.396Z,68.61
2018-09-30T18:03:40.715Z,69.23
2018-09-30T18:06:10.014Z,68.33
2018-09-30T18:08:39.326Z,68.96
2018-09-30T18:11:09.071Z,68.51
2018-09-30T18:13:38.266Z,67.98
2018-09-30T18:16:08.014Z,68.25
2018-09-30T18:18:37.393Z,68.29
2018-09-30T18:21:07.218Z,67.75
2018-09-30T18:23:36.604Z,67.44
2018-09-30T18:26:05.900Z,68.16
2018-09-30T18:28:35.208Z,68.70
2018-09-30T18:31:04.530Z,68.18
2018-09-30T18:33:33.956Z,68.08
2018-09-30T18:36:03.943Z,68.71
2018-09-30T18:38:33.311Z,69.05
2018-09-30T18:41:02.599Z,68.91
2018-09-30T18:43:31.932Z,68.66
2018-09-30T18:46:01.405Z,69.66
2018-09-30T18:48:31.439Z,69.76
2018-09-30T18:51:00.861Z,69.50
2018-09-30T18:53:30.210Z,68.68
2018-09-30T18:55:59.697Z,68.98
2018-09-30T18:58:28.927Z,69.64
2018-09-30T19:00:58.416Z,69.52
2018-09-30T19:03:29.445Z,70.04
2018-09-30T19:05:58.815Z,71.09
2018-09-30T19:08:28.279Z,71.63
2018-09-30T19:10:57.632Z,71.73
2018-09-30T19:13:27.088Z,70.73
2018-09-30T19:15:56.556Z,70.73
2018-09-30T19:18:25.835Z,70.19
2018-09-30T19:20:55.162Z,70.42
2018-09-30T19:23:24.504Z,70.80
2018-09-30T19:25:54.942Z,70.12
2018-09-30T19:28:24.266Z,70.65
2018-09-30T19:30:53.626Z,70.31
2018-09-30T19:33:23.148Z,70.48
2018-09-30T19:35:52.466Z,71.24
2018-09-30T19:38:21.769Z,71.12
2018-09-30T19:40:51.131Z,71.43
2018-09-30T19:43:20.696Z,71.69
2018-09-30T19:45:50.132Z,71.45
2018-09-30T19:48:19.597Z,71.53
2018-09-30T19:50:49.212Z,71.41
2018-09-30T19:53:18.667Z,71.32
2018-09-30T19:55:48.117Z,71.85
2018-09-30T19:58:17.487Z,71.63
2018-09-30T20:00:47.731Z,73.06
2018-09-30T20:03:17.344Z,72.59
2018-09-30T20:05:46.736Z,71.80
2018-09-30T20:08:16.108Z,72.22
2018-09-30T20:10:45.497Z,71.98
2018-09-30T20:13:14.834Z,72.02
2018-09-30T20:15:44.198Z,71.80
2018-09-30T20:18:13.832Z,71.32
2018-09-30T20:20:43.351Z,70.93
2018-09-30T20:23:12.883Z,71.28
2018-09-30T20:25:42.213Z,71.79
2018-09-30T20:28:11.663Z,72.45
2018-09-30T20:30:41.114Z,71.74
2018-09-30T20:33:10.462Z,71.46
2018-09-30T20:35:39.780Z,71.85
2018-09-30T20:38:09.100Z,70.98
2018-09-30T20:40:41.274Z,71.82
2018-09-30T20:43:10.582Z,71.82
2018-09-30T20:45:40.292Z,71.87
2018-09-30T20:48:10.112Z,72.75
2018-09-30T20:53:21.083Z,72.17
2018-09-30T20:55:50.500Z,72.56
2018-09-30T20:58:20.793Z,73.55
2018-09-30T21:00:50.507Z,72.70
2018-09-30T21:03:25.066Z,72.78
2018-09-30T21:06:37.386Z,72.61
2018-09-30T21:09:12.558Z,72.57
2018-09-30T21:11:42.335Z,72.30
2018-09-30T21:14:11.867Z,73.22
2018-09-30T21:16:41.219Z,73.48
2018-09-30T21:19:10.637Z,73.23
2018-09-30T21:21:40.009Z,73.48
2018-09-30T21:24:11.366Z,74.32
2018-09-30T21:26:40.750Z,73.81
2018-09-30T21:29:10.142Z,73.93
2018-09-30T21:31:42.614Z,74.46
2018-09-30T21:34:12.116Z,75.17
2018-09-30T21:36:41.498Z,75.01
2018-09-30T21:39:11.671Z,75.30
2018-09-30T21:41:40.980Z,74.31
2018-09-30T21:44:10.415Z,73.53
2018-09-30T21:46:39.764Z,74.07
2018-09-30T21:49:09.195Z,73.93
2018-09-30T21:51:38.533Z,74.44
2018-09-30T21:54:07.906Z,74.68
2018-09-30T21:56:37.277Z,74.50
2018-09-30T21:59:06.756Z,73.82
2018-09-30T22:01:37.525Z,74.37
2018-09-30T22:04:06.874Z,74.29
2018-09-30T22:06:36.216Z,73.82
2018-09-30T22:09:08.731Z,74.60
2018-09-30T22:11:40.512Z,74.75
2018-09-30T22:14:09.902Z,75.05
2018-09-30T22:16:39.274Z,74.51
2018-09-30T22:19:09.326Z,74.84
2018-09-30T22:21:38.613Z,74.94
2018-09-30T22:24:08.097Z,74.70
2018-09-30T22:26:37.449Z,76.27
2018-09-30T22:29:06.790Z,75.19
2018-09-30T22:31:36.233Z,74.24
2018-09-30T22:34:05.582Z,74.37
2018-09-30T22:36:34.946Z,74.70
2018-09-30T22:39:05.999Z,74.54
2018-09-30T22:41:35.509Z,74.73
2018-09-30T22:44:04.824Z,74.77
2018-09-30T22:46:35.768Z,73.46
2018-09-30T22:49:11.995Z,73.77
2018-09-30T22:51:41.348Z,72.40
2018-09-30T22:54:10.682Z,69.82
2018-09-30T22:56:40.055Z,69.32
2018-09-30T22:59:09.456Z,69.08
2018-09-30T23:01:38.798Z,69.27
2018-09-30T23:04:08.582Z,70.03
2018-09-30T23:06:38.102Z,70.95
2018-09-30T23:09:08.470Z,71.44
2018-09-30T23:11:38.396Z,71.60
2018-09-30T23:14:14.096Z,72.66
2018-09-30T23:16:43.421Z,73.19
2018-09-30T23:19:12.740Z,73.48
2018-09-30T23:21:42.114Z,72.35
2018-09-30T23:24:11.461Z,72.80
2018-09-30T23:26:40.809Z,70.23
2018-09-30T23:29:10.208Z,70.76
2018-09-30T23:31:39.579Z,72.45
2018-09-30T23:34:10.773Z,71.48
2018-09-30T23:36:40.199Z,72.75
2018-09-30T23:39:12.205Z,72.81
2018-09-30T23:41:41.568Z,73.25
2018-09-30T23:46:55.408Z,74.74
2018-09-30T23:49:24.698Z,75.03
2018-09-30T23:51:54.943Z,74.85
2018-09-30T23:54:24.331Z,76.68
2018-09-30T23:56:55.708Z,74.73
2018-09-30T23:59:25.024Z,72.55
